createdAt,value
2022-12-14T00:01:30.103Z,11.45
2022-12-14T00:03:33.621Z,7.15
2022-12-14T00:05:37.498Z,10.77
2022-12-14T00:07:41.220Z,7.22
2022-12-14T00:09:45.847Z,9.60
2022-12-14T00:11:49.263Z,11.57
2022-12-14T00:13:54.537Z,9.07
2022-12-14T00:15:59.262Z,10.75
2022-12-14T00:18:02.616Z,10.40
2022-12-14T00:20:06.837Z,13.02
2022-12-14T00:22:10.145Z,9.38
2022-12-14T00:24:13.996Z,10.88
2022-12-14T00:26:19.074Z,8.52
2022-12-14T00:28:22.477Z,7.38
2022-12-14T00:30:25.755Z,7.75
2022-12-14T00:32:30.482Z,10.40
2022-12-14T00:34:33.917Z,8.93
2022-12-14T00:36:37.962Z,8.20
2022-12-14T00:38:41.944Z,10.82
2022-12-14T00:40:45.258Z,7.63
2022-12-14T00:42:48.575Z,10.43
2022-12-14T00:44:52.179Z,9.57
2022-12-14T00:46:55.460Z,10.98
2022-12-14T00:49:00.148Z,10.82
2022-12-14T00:51:06.471Z,14.85
2022-12-14T00:53:09.807Z,10.00
2022-12-14T00:55:13.268Z,13.48
2022-12-14T00:57:16.651Z,8.13
2022-12-14T00:59:25.697Z,9.75
2022-12-14T01:01:31.712Z,7.07
2022-12-14T01:03:35.832Z,10.95
2022-12-14T01:05:41.349Z,10.40
2022-12-14T01:07:44.890Z,12.95
2022-12-14T01:09:52.196Z,7.60
2022-12-14T01:11:56.673Z,13.15
2022-12-14T01:14:00.037Z,10.75
2022-12-14T01:16:08.945Z,10.40
2022-12-14T01:18:13.284Z,10.40
2022-12-14T01:20:16.509Z,8.70
2022-12-14T01:22:21.331Z,9.07
2022-12-14T01:24:24.615Z,7.95
2022-12-14T01:26:30.352Z,12.40
2022-12-14T01:28:35.208Z,10.70
2022-12-14T01:30:40.617Z,9.23
2022-12-14T01:32:44.774Z,12.05
2022-12-14T01:34:49.527Z,9.93
2022-12-14T01:36:53.119Z,9.77
2022-12-14T01:38:59.542Z,9.23
2022-12-14T01:41:03.341Z,8.68
2022-12-14T01:43:13.798Z,10.68
2022-12-14T01:45:21.646Z,8.57
2022-12-14T01:47:41.239Z,9.02
2022-12-14T01:49:47.563Z,10.18
2022-12-14T01:52:01.313Z,9.30
2022-12-14T01:54:10.440Z,8.43
2022-12-14T01:56:17.229Z,7.95
2022-12-14T01:58:23.040Z,9.63
2022-12-14T02:00:27.679Z,11.18
2022-12-14T02:02:31.649Z,10.15
2022-12-14T02:04:37.509Z,10.52
2022-12-14T02:06:44.128Z,13.90
2022-12-14T02:08:49.661Z,9.65
2022-12-14T02:10:58.402Z,10.13
2022-12-14T02:13:07.814Z,11.70
2022-12-14T02:15:13.723Z,11.15
2022-12-14T02:17:17.264Z,8.95
2022-12-14T02:19:20.547Z,11.07
2022-12-14T02:21:32.349Z,12.52
2022-12-14T02:24:11.049Z,12.52
2022-12-14T02:26:50.191Z,9.70
2022-12-14T02:29:24.913Z,9.35
2022-12-14T02:31:35.034Z,9.00
2022-12-14T02:33:47.590Z,10.30
2022-12-14T02:35:57.411Z,11.15
2022-12-14T02:38:09.423Z,10.85
2022-12-14T02:40:22.111Z,13.25
2022-12-14T02:42:36.382Z,10.57
2022-12-14T02:44:53.033Z,9.30
2022-12-14T02:47:03.098Z,11.02
2022-12-14T02:49:10.561Z,11.52
2022-12-14T02:51:23.689Z,15.02
2022-12-14T02:53:32.574Z,9.73
2022-12-14T02:55:40.125Z,9.60
2022-12-14T02:57:50.344Z,12.60
2022-12-14T02:59:59.404Z,9.43
2022-12-14T03:02:04.957Z,8.52
2022-12-14T03:04:09.191Z,14.35
2022-12-14T03:06:26.341Z,10.23
2022-12-14T03:08:36.797Z,9.65
2022-12-14T03:10:47.085Z,9.25
2022-12-14T03:12:57.411Z,12.48
2022-12-14T03:15:04.898Z,8.85
2022-12-14T03:17:19.282Z,8.95
2022-12-14T03:19:26.433Z,11.43
2022-12-14T03:21:32.927Z,12.68
2022-12-14T03:23:39.636Z,10.50
2022-12-14T03:25:46.564Z,10.90
2022-12-14T03:27:57.515Z,14.20
2022-12-14T03:30:07.934Z,12.68
2022-12-14T03:32:13.615Z,9.05
2022-12-14T03:34:19.184Z,9.95
2022-12-14T03:36:28.430Z,15.73
2022-12-14T03:38:36.673Z,13.10
2022-12-14T03:40:57.410Z,11.55
2022-12-14T03:43:04.283Z,8.93
2022-12-14T03:45:19.552Z,14.18
2022-12-14T03:47:42.006Z,10.93
2022-12-14T03:49:57.940Z,13.13
2022-12-14T03:52:07.248Z,10.80
2022-12-14T03:54:20.642Z,11.40
2022-12-14T03:56:35.814Z,8.88
2022-12-14T03:58:43.616Z,14.05
2022-12-14T04:00:53.515Z,10.20
2022-12-14T04:03:03.434Z,10.77
2022-12-14T04:05:13.551Z,11.57
2022-12-14T04:07:24.846Z,8.10
2022-12-14T04:09:35.292Z,11.75
2022-12-14T04:12:01.739Z,9.82
2022-12-14T04:14:41.029Z,11.50
2022-12-14T04:17:08.821Z,10.07
2022-12-14T04:19:21.854Z,9.60
2022-12-14T04:21:33.111Z,17.13
2022-12-14T04:23:59.343Z,11.98
2022-12-14T04:26:06.304Z,11.82
2022-12-14T04:28:34.488Z,13.98
2022-12-14T04:30:40.362Z,12.13
2022-12-14T04:32:50.456Z,10.10
2022-12-14T04:34:58.541Z,10.65
2022-12-14T04:37:05.344Z,11.00
2022-12-14T04:39:13.416Z,10.55
2022-12-14T04:41:21.662Z,14.05
2022-12-14T04:43:29.631Z,11.02
2022-12-14T04:45:37.788Z,13.32
2022-12-14T04:47:50.354Z,13.15
2022-12-14T04:49:58.879Z,14.05
2022-12-14T04:52:07.504Z,12.63
2022-12-14T04:54:14.900Z,11.73
2022-12-14T04:56:23.070Z,13.98
2022-12-14T04:58:28.719Z,13.18
2022-12-14T05:00:36.764Z,11.10
2022-12-14T05:02:54.678Z,13.02
2022-12-14T05:05:09.211Z,13.20
2022-12-14T05:07:20.032Z,11.05
2022-12-14T05:09:30.145Z,11.45
2022-12-14T05:11:57.471Z,9.35
2022-12-14T05:14:04.886Z,14.70
2022-12-14T05:16:08.808Z,13.23
2022-12-14T05:18:14.100Z,13.02
2022-12-14T05:20:20.251Z,9.68
2022-12-14T05:22:23.620Z,14.77
2022-12-14T05:24:26.974Z,13.32
2022-12-14T05:26:31.588Z,10.50
2022-12-14T05:28:34.876Z,12.80
2022-12-14T05:30:38.556Z,14.02
2022-12-14T05:32:42.049Z,14.05
2022-12-14T05:34:46.930Z,13.32
2022-12-14T05:36:50.672Z,18.63
2022-12-14T05:38:54.171Z,12.70
2022-12-14T05:40:57.459Z,12.52
2022-12-14T05:43:08.324Z,14.48
2022-12-14T05:45:13.867Z,15.68
2022-12-14T05:47:17.387Z,16.15
2022-12-14T05:49:20.777Z,13.35
2022-12-14T05:51:25.713Z,16.73
2022-12-14T05:53:29.865Z,17.08
2022-12-14T05:55:33.303Z,13.95
2022-12-14T05:57:36.992Z,12.00
2022-12-14T05:59:40.504Z,12.30
2022-12-14T06:01:44.494Z,14.88
2022-12-14T06:03:54.228Z,13.25
2022-12-14T06:06:03.294Z,13.35
2022-12-14T06:08:08.241Z,12.52
2022-12-14T06:10:11.777Z,16.35
2022-12-14T06:12:15.125Z,14.52
2022-12-14T06:14:19.029Z,18.80
2022-12-14T06:16:24.444Z,19.52
2022-12-14T06:18:27.825Z,16.27
2022-12-14T06:20:31.116Z,16.88
2022-12-14T06:22:34.495Z,16.92
2022-12-14T06:24:39.349Z,14.95
2022-12-14T06:26:43.104Z,17.48
2022-12-14T06:28:46.786Z,18.33
2022-12-14T06:30:50.469Z,12.05
2022-12-14T06:32:53.913Z,16.05
2022-12-14T06:34:58.435Z,14.40
2022-12-14T06:37:02.071Z,15.93
2022-12-14T06:39:07.584Z,13.52
2022-12-14T06:41:12.523Z,17.13
2022-12-14T06:43:16.109Z,16.63
2022-12-14T06:45:19.817Z,12.88
2022-12-14T06:47:23.074Z,12.70
2022-12-14T06:49:26.607Z,17.13
2022-12-14T06:51:29.989Z,15.43
2022-12-14T06:53:33.958Z,15.90
2022-12-14T06:55:37.470Z,14.80
2022-12-14T06:57:42.531Z,18.02
2022-12-14T06:59:45.895Z,14.38
2022-12-14T07:01:49.664Z,17.20
2022-12-14T07:03:55.569Z,18.90
2022-12-14T07:05:59.411Z,16.10
2022-12-14T07:08:02.806Z,20.02
2022-12-14T07:10:07.113Z,17.05
2022-12-14T07:12:10.713Z,15.73
2022-12-14T07:14:17.417Z,14.23
2022-12-14T07:16:24.265Z,15.05
2022-12-14T07:18:28.941Z,17.17
2022-12-14T07:20:32.470Z,16.55
2022-12-14T07:22:36.748Z,17.52
2022-12-14T07:24:40.181Z,13.15
2022-12-14T07:26:43.672Z,13.52
2022-12-14T07:28:47.790Z,17.02
2022-12-14T07:30:56.729Z,15.43
2022-12-14T07:33:00.059Z,17.27
2022-12-14T07:35:04.516Z,14.82
2022-12-14T07:37:07.882Z,14.60
2022-12-14T07:39:14.654Z,15.05
2022-12-14T07:41:23.173Z,16.20
2022-12-14T07:43:27.333Z,17.67
2022-12-14T07:45:31.467Z,15.52
2022-12-14T07:47:36.232Z,17.83
2022-12-14T07:49:39.792Z,23.48
2022-12-14T07:51:44.346Z,23.60
2022-12-14T07:53:48.416Z,23.65
2022-12-14T07:55:52.028Z,16.70
2022-12-14T07:57:55.418Z,18.98
2022-12-14T07:59:58.728Z,22.15
2022-12-14T08:02:02.097Z,20.65
2022-12-14T08:04:09.241Z,20.15
2022-12-14T08:06:14.022Z,19.92
2022-12-14T08:08:18.576Z,19.83
2022-12-14T08:10:22.141Z,19.67
2022-12-14T08:12:25.430Z,19.75
2022-12-14T08:14:28.720Z,18.50
2022-12-14T08:16:33.213Z,20.50
2022-12-14T08:18:38.776Z,24.25
2022-12-14T08:20:46.305Z,21.67
2022-12-14T08:22:56.304Z,17.73
2022-12-14T08:24:59.622Z,21.60
2022-12-14T08:27:02.883Z,21.50
2022-12-14T08:29:06.570Z,21.23
2022-12-14T08:31:11.768Z,18.02
2022-12-14T08:33:15.312Z,22.65
2022-12-14T08:35:19.177Z,21.63
2022-12-14T08:37:24.043Z,22.23
2022-12-14T08:39:27.825Z,18.85
2022-12-14T08:41:31.964Z,19.13
2022-12-14T08:43:35.854Z,20.00
2022-12-14T08:45:39.961Z,21.33
2022-12-14T08:47:43.547Z,18.60
2022-12-14T08:49:46.962Z,19.17
2022-12-14T08:51:50.495Z,23.52
2022-12-14T08:53:58.246Z,21.73
2022-12-14T08:56:06.352Z,20.92
2022-12-14T08:58:10.354Z,21.48
2022-12-14T09:00:14.973Z,21.02
2022-12-14T09:02:18.676Z,23.10
2022-12-14T09:04:22.481Z,21.20
2022-12-14T09:06:28.638Z,19.85
2022-12-14T09:08:32.590Z,20.27
2022-12-14T09:10:37.572Z,21.00
2022-12-14T09:12:41.307Z,24.90
2022-12-14T09:14:46.641Z,21.95
2022-12-14T09:16:52.614Z,21.67
2022-12-14T09:18:56.154Z,23.45
2022-12-14T09:20:59.722Z,19.70
2022-12-14T09:23:03.148Z,22.67
2022-12-14T09:25:08.402Z,22.27
2022-12-14T09:27:13.097Z,21.98
2022-12-14T09:29:17.922Z,21.15
2022-12-14T09:31:24.840Z,18.92
2022-12-14T09:33:29.583Z,18.38
2022-12-14T09:35:33.224Z,22.17
2022-12-14T09:37:38.197Z,18.35
2022-12-14T09:39:41.539Z,19.00
2022-12-14T09:42:01.930Z,19.38
2022-12-14T09:44:18.889Z,21.42
2022-12-14T09:46:43.145Z,18.48
2022-12-14T09:48:46.875Z,23.00
2022-12-14T09:50:53.212Z,25.73
2022-12-14T09:53:00.535Z,20.85
2022-12-14T09:55:06.826Z,19.63
2022-12-14T09:57:15.251Z,19.83
2022-12-14T09:59:21.397Z,17.77
2022-12-14T10:02:29.314Z,20.27
2022-12-14T10:04:32.236Z,22.27
2022-12-14T10:06:41.442Z,20.40
2022-12-14T10:08:54.725Z,22.33
2022-12-14T10:11:05.199Z,21.63
2022-12-14T10:13:19.743Z,20.13
2022-12-14T10:15:30.817Z,20.45
2022-12-14T10:17:45.373Z,22.25
2022-12-14T10:19:55.235Z,20.38
2022-12-14T10:22:01.901Z,20.40
2022-12-14T10:24:07.431Z,18.80
2022-12-14T10:26:20.032Z,19.60
2022-12-14T10:28:34.651Z,16.88
2022-12-14T10:30:42.011Z,20.45
2022-12-14T10:32:50.002Z,18.70
2022-12-14T10:34:53.560Z,27.85
2022-12-14T10:37:07.127Z,18.83
2022-12-14T10:39:23.583Z,20.77
2022-12-14T10:41:36.397Z,20.17
2022-12-14T10:43:49.431Z,19.95
2022-12-14T10:46:02.299Z,22.23
2022-12-14T10:48:25.485Z,16.23
2022-12-14T10:50:40.413Z,17.98
2022-12-14T10:52:46.727Z,18.13
2022-12-14T10:54:53.760Z,19.58
2022-12-14T10:56:57.579Z,16.92
2022-12-14T10:59:25.511Z,17.08
2022-12-14T11:01:30.390Z,18.50
2022-12-14T11:03:33.898Z,21.30
2022-12-14T11:05:40.746Z,16.42
2022-12-14T11:07:45.915Z,18.25
2022-12-14T11:09:49.294Z,20.63
2022-12-14T11:11:59.441Z,17.45
2022-12-14T11:14:10.057Z,18.80
2022-12-14T11:16:20.714Z,18.70
2022-12-14T11:18:31.232Z,17.15
2022-12-14T11:20:35.315Z,17.10
2022-12-14T11:22:45.775Z,20.98
2022-12-14T11:24:50.315Z,19.30
2022-12-14T11:26:56.650Z,19.80
2022-12-14T11:29:03.022Z,17.77
2022-12-14T11:31:10.020Z,20.05
2022-12-14T11:33:18.301Z,17.00
2022-12-14T11:35:23.259Z,16.83
2022-12-14T11:37:28.446Z,17.90
2022-12-14T11:39:32.281Z,17.08
2022-12-14T11:41:37.788Z,20.40
2022-12-14T11:43:41.307Z,20.95
2022-12-14T11:45:52.025Z,17.55
2022-12-14T11:48:12.110Z,22.05
2022-12-14T11:50:26.403Z,21.45
2022-12-14T11:52:43.104Z,17.45
2022-12-14T11:54:49.830Z,15.60
2022-12-14T11:56:58.311Z,24.63
2022-12-14T11:59:01.672Z,19.33
2022-12-14T12:01:07.753Z,16.33
2022-12-14T12:03:18.055Z,16.08
2022-12-14T12:05:24.044Z,15.00
2022-12-14T12:07:32.247Z,17.83
2022-12-14T12:09:36.130Z,15.45
2022-12-14T12:11:46.039Z,16.70
2022-12-14T12:13:53.602Z,16.80
2022-12-14T12:16:00.295Z,22.10
2022-12-14T12:18:07.151Z,20.02
2022-12-14T12:20:25.217Z,18.55
2022-12-14T12:22:31.577Z,15.95
2022-12-14T12:25:08.196Z,16.25
2022-12-14T12:27:12.429Z,18.58
2022-12-14T12:29:20.922Z,17.77
2022-12-14T12:31:29.071Z,15.40
2022-12-14T12:33:41.864Z,17.55
2022-12-14T12:35:50.114Z,17.63
2022-12-14T12:37:58.560Z,18.90
2022-12-14T12:40:11.642Z,16.83
2022-12-14T12:42:22.353Z,15.60
2022-12-14T12:44:39.757Z,18.17
2022-12-14T12:47:22.682Z,17.90
2022-12-14T12:49:18.727Z,20.40
2022-12-14T12:51:26.492Z,18.15
2022-12-14T12:53:37.264Z,19.50
2022-12-14T12:55:44.811Z,22.83
2022-12-14T12:57:52.133Z,19.00
2022-12-14T12:59:57.712Z,25.10
2022-12-14T13:02:04.520Z,19.10
2022-12-14T13:04:12.775Z,20.70
2022-12-14T13:06:22.642Z,19.30
2022-12-14T13:08:30.019Z,22.67
2022-12-14T13:10:42.073Z,21.50
2022-12-14T13:12:56.863Z,18.70
2022-12-14T13:15:03.278Z,21.02
2022-12-14T13:17:08.498Z,22.80
2022-12-14T13:21:47.962Z,21.38
2022-12-14T13:23:53.595Z,19.92
2022-12-14T13:26:13.419Z,22.33
2022-12-14T13:28:40.250Z,21.70
2022-12-14T13:31:06.351Z,30.45
2022-12-14T13:33:36.364Z,22.05
2022-12-14T13:35:58.498Z,23.98
2022-12-14T13:38:26.390Z,23.35
2022-12-14T13:40:51.318Z,22.63
2022-12-14T13:43:05.656Z,24.42
2022-12-14T13:45:18.789Z,25.50
2022-12-14T13:47:25.290Z,24.17
2022-12-14T13:49:29.379Z,21.85
2022-12-14T13:51:33.926Z,24.80
2022-12-14T13:53:43.674Z,29.38
2022-12-14T13:55:54.408Z,28.00
2022-12-14T13:58:11.400Z,22.40
2022-12-14T14:00:56.742Z,24.02
2022-12-14T14:03:00.161Z,22.90
2022-12-14T14:05:38.742Z,23.27
2022-12-14T14:07:51.937Z,18.88
2022-12-14T14:10:05.741Z,21.63
2022-12-14T14:12:40.000Z,24.23
2022-12-14T14:14:51.999Z,29.38
2022-12-14T14:16:58.134Z,33.95
2022-12-14T14:19:11.722Z,20.50
2022-12-14T14:21:38.812Z,23.13
2022-12-14T14:23:58.681Z,20.65
2022-12-14T14:26:20.584Z,23.10
2022-12-14T14:28:30.877Z,24.48
2022-12-14T14:30:38.403Z,20.30
2022-12-14T14:32:43.583Z,31.55
2022-12-14T14:34:50.594Z,23.85
2022-12-14T14:36:54.466Z,24.73
2022-12-14T14:38:59.879Z,27.95
2022-12-14T14:41:18.863Z,22.38
2022-12-14T14:43:29.730Z,24.45
2022-12-14T14:45:40.285Z,22.00
2022-12-14T14:47:44.611Z,26.00
2022-12-14T14:49:55.116Z,20.33
2022-12-14T14:52:18.717Z,25.55
2022-12-14T14:55:06.953Z,27.98
2022-12-14T14:56:57.047Z,25.90
2022-12-14T14:59:36.080Z,21.95
2022-12-14T15:01:46.413Z,20.45
2022-12-14T15:03:57.462Z,22.92
2022-12-14T15:06:00.997Z,24.55
2022-12-14T15:08:05.324Z,22.65
2022-12-14T15:10:22.706Z,21.00
2022-12-14T15:12:34.412Z,21.75
2022-12-14T15:14:43.225Z,27.23
2022-12-14T15:16:51.706Z,23.50
2022-12-14T15:18:55.133Z,26.30
2022-12-14T15:21:03.348Z,19.52
2022-12-14T15:23:07.865Z,20.23
2022-12-14T15:25:15.569Z,22.55
2022-12-14T15:27:29.186Z,21.20
2022-12-14T15:29:32.831Z,20.02
2022-12-14T15:31:41.815Z,21.55
2022-12-14T15:33:48.852Z,20.67
2022-12-14T15:36:07.094Z,26.40
2022-12-14T15:38:19.964Z,24.38
2022-12-14T15:40:26.642Z,24.25
2022-12-14T15:42:30.715Z,23.52
2022-12-14T15:44:35.268Z,20.58
2022-12-14T15:46:41.390Z,22.60
2022-12-14T15:48:46.307Z,22.60
2022-12-14T15:50:54.429Z,19.27
2022-12-14T15:53:00.924Z,20.88
2022-12-14T15:55:04.394Z,18.27
2022-12-14T15:57:16.987Z,19.90
2022-12-14T15:59:23.163Z,28.48
2022-12-14T16:01:30.683Z,24.42
2022-12-14T16:03:38.318Z,26.08
2022-12-14T16:05:43.763Z,24.40
2022-12-14T16:07:51.742Z,25.95
2022-12-14T16:10:00.186Z,24.98
2022-12-14T16:12:08.587Z,19.40
2022-12-14T16:14:21.394Z,21.08
2022-12-14T16:16:29.421Z,26.63
2022-12-14T16:18:33.895Z,27.40
2022-12-14T16:20:39.351Z,26.73
2022-12-14T16:22:59.413Z,24.13
2022-12-14T16:25:18.295Z,23.63
2022-12-14T16:27:21.789Z,28.85
2022-12-14T16:29:28.804Z,24.83
2022-12-14T16:31:32.485Z,27.45
2022-12-14T16:33:38.004Z,22.27
2022-12-14T16:35:41.609Z,23.50
2022-12-14T16:37:47.346Z,23.60
2022-12-14T16:39:51.109Z,20.73
2022-12-14T16:41:58.392Z,22.27
2022-12-14T16:44:02.668Z,29.60
2022-12-14T16:46:21.012Z,23.35
2022-12-14T16:48:24.927Z,23.15
2022-12-14T16:53:16.531Z,20.50
2022-12-14T16:55:26.672Z,23.98
2022-12-14T16:57:30.370Z,24.02
2022-12-14T16:59:41.145Z,19.27
2022-12-14T17:01:47.040Z,20.33
2022-12-14T17:04:00.142Z,23.35
2022-12-14T17:06:05.974Z,21.73
2022-12-14T17:08:12.948Z,24.15
2022-12-14T17:10:18.174Z,27.98
2022-12-14T17:12:21.586Z,26.10
2022-12-14T17:14:25.253Z,23.70
2022-12-14T17:16:29.723Z,34.42
2022-12-14T17:18:35.080Z,29.98
2022-12-14T17:20:40.198Z,37.67
2022-12-14T17:22:43.895Z,38.75
2022-12-14T17:24:54.715Z,46.80
2022-12-14T17:26:58.117Z,33.63
2022-12-14T17:29:01.465Z,36.20
2022-12-14T17:31:05.212Z,44.10
2022-12-14T17:33:10.175Z,41.70
2022-12-14T17:35:18.322Z,34.95
2022-12-14T17:37:24.153Z,35.95
2022-12-14T17:39:28.861Z,39.97
2022-12-14T17:41:33.948Z,36.15
2022-12-14T17:43:37.519Z,34.13
2022-12-14T17:45:41.539Z,32.67
2022-12-14T17:47:45.039Z,28.67
2022-12-14T17:49:48.335Z,23.23
2022-12-14T17:51:52.897Z,29.75
2022-12-14T17:53:58.983Z,28.65
2022-12-14T17:56:02.432Z,36.35
2022-12-14T17:58:07.266Z,28.90
2022-12-14T18:00:33.355Z,35.33
2022-12-14T18:02:37.634Z,30.35
2022-12-14T18:04:41.099Z,48.20
2022-12-14T18:06:44.571Z,35.30
2022-12-14T18:08:48.832Z,40.00
2022-12-14T18:10:54.882Z,33.22
2022-12-14T18:12:58.526Z,46.20
2022-12-14T18:15:03.282Z,39.47
2022-12-14T18:17:11.471Z,37.03
2022-12-14T18:19:15.400Z,46.75
2022-12-14T18:21:20.868Z,35.70
2022-12-14T18:23:24.829Z,34.38
2022-12-14T18:25:32.376Z,51.17
2022-12-14T18:27:35.888Z,49.00
2022-12-14T18:29:39.995Z,46.50
2022-12-14T18:31:44.973Z,41.88
2022-12-14T18:33:53.515Z,38.45
2022-12-14T18:35:58.262Z,40.08
2022-12-14T18:38:01.840Z,38.97
2022-12-14T18:40:05.878Z,33.42
2022-12-14T18:42:11.153Z,36.60
2022-12-14T18:44:14.573Z,36.70
2022-12-14T18:46:19.087Z,39.03
2022-12-14T18:48:25.389Z,41.03
2022-12-14T18:50:30.466Z,39.90
2022-12-14T18:52:33.743Z,38.70
2022-12-14T18:54:37.060Z,33.45
2022-12-14T18:56:42.618Z,32.78
2022-12-14T18:58:46.598Z,36.35
2022-12-14T19:00:52.054Z,33.55
2022-12-14T19:02:59.524Z,33.42
2022-12-14T19:05:04.573Z,31.23
2022-12-14T19:07:07.995Z,36.72
2022-12-14T19:09:11.484Z,33.47
2022-12-14T19:11:22.698Z,33.60
2022-12-14T19:13:26.507Z,29.15
2022-12-14T19:15:32.679Z,33.40
2022-12-14T19:17:36.114Z,31.45
2022-12-14T19:19:44.303Z,31.00
2022-12-14T19:21:49.508Z,31.83
2022-12-14T19:23:53.360Z,33.53
2022-12-14T19:25:56.650Z,37.40
2022-12-14T19:30:25.135Z,38.30
2022-12-14T19:32:28.386Z,34.22
2022-12-14T19:34:31.799Z,34.47
2022-12-14T19:36:35.267Z,35.25
2022-12-14T19:38:40.148Z,33.30
2022-12-14T19:40:46.270Z,35.58
2022-12-14T19:42:50.663Z,39.03
2022-12-14T19:44:54.188Z,40.65
2022-12-14T19:46:57.857Z,47.00
2022-12-14T19:49:01.392Z,31.65
2022-12-14T19:51:05.661Z,34.08
2022-12-14T19:53:09.061Z,40.53
2022-12-14T19:55:14.020Z,29.95
2022-12-14T19:57:17.497Z,33.88
2022-12-14T19:59:20.873Z,32.83
2022-12-14T20:01:24.461Z,37.03
2022-12-14T20:03:28.852Z,31.17
2022-12-14T20:05:32.726Z,32.78
2022-12-14T20:07:41.913Z,35.58
2022-12-14T20:09:47.008Z,35.38
2022-12-14T20:11:51.913Z,41.58
2022-12-14T20:13:59.933Z,37.95
2022-12-14T20:16:06.531Z,38.13
2022-12-14T20:18:10.357Z,35.33
2022-12-14T20:20:13.934Z,41.05
2022-12-14T20:22:17.842Z,43.80
2022-12-14T20:24:21.442Z,32.63
2022-12-14T20:26:25.495Z,37.85
2022-12-14T20:28:30.407Z,36.83
2022-12-14T20:30:35.136Z,34.22
2022-12-14T20:32:40.886Z,35.53
2022-12-14T20:34:44.312Z,33.22
2022-12-14T20:36:47.783Z,29.83
2022-12-14T20:38:56.156Z,29.30
2022-12-14T20:41:06.022Z,34.05
2022-12-14T20:43:09.416Z,29.13
2022-12-14T20:45:14.429Z,40.78
2022-12-14T20:47:18.349Z,35.00
2022-12-14T20:49:24.634Z,34.28
2022-12-14T20:51:30.747Z,24.23
2022-12-14T20:53:34.372Z,29.60
2022-12-14T20:55:38.127Z,33.72
2022-12-14T20:57:41.550Z,25.70
2022-12-14T20:59:45.015Z,26.05
2022-12-14T21:01:55.548Z,25.30
2022-12-14T21:04:02.545Z,21.40
2022-12-14T21:06:06.217Z,26.35
2022-12-14T21:08:10.225Z,24.63
2022-12-14T21:10:13.660Z,22.90
2022-12-14T21:12:21.910Z,24.08
2022-12-14T21:14:27.852Z,24.98
2022-12-14T21:16:31.233Z,23.80
2022-12-14T21:18:36.110Z,24.13
2022-12-14T21:20:39.425Z,25.10
2022-12-14T21:22:42.852Z,27.02
2022-12-14T21:25:04.402Z,25.50
2022-12-14T21:27:09.791Z,27.45
2022-12-14T21:29:14.710Z,25.35
2022-12-14T21:31:18.091Z,22.17
2022-12-14T21:33:21.603Z,24.42
2022-12-14T21:35:26.599Z,28.70
2022-12-14T21:37:30.017Z,27.10
2022-12-14T21:39:33.335Z,30.30
2022-12-14T21:41:54.486Z,27.98
2022-12-14T21:43:59.544Z,29.50
2022-12-14T21:46:03.344Z,27.60
2022-12-14T21:48:07.016Z,27.88
2022-12-14T21:50:11.019Z,34.17
2022-12-14T21:52:17.727Z,24.83
2022-12-14T21:54:21.375Z,28.00
2022-12-14T21:56:42.396Z,29.30
2022-12-14T21:58:51.412Z,26.52
2022-12-14T22:00:57.401Z,23.48
2022-12-14T22:03:00.753Z,29.77
2022-12-14T22:05:04.773Z,27.80
2022-12-14T22:07:08.567Z,24.92
2022-12-14T22:09:13.833Z,26.33
2022-12-14T22:11:17.987Z,26.98
2022-12-14T22:13:21.373Z,33.72
2022-12-14T22:15:24.662Z,28.48
2022-12-14T22:17:28.326Z,23.77
2022-12-14T22:19:32.000Z,27.20
2022-12-14T22:21:39.374Z,27.20
2022-12-14T22:23:43.824Z,28.75
2022-12-14T22:25:51.635Z,25.77
2022-12-14T22:27:55.051Z,31.38
2022-12-14T22:29:58.314Z,30.55
2022-12-14T22:32:02.761Z,24.70
2022-12-14T22:34:09.123Z,25.50
2022-12-14T22:36:12.551Z,25.98
2022-12-14T22:38:16.045Z,26.00
2022-12-14T22:40:19.331Z,25.48
2022-12-14T22:42:24.102Z,30.70
2022-12-14T22:44:27.575Z,24.13
2022-12-14T22:46:31.960Z,23.63
2022-12-14T22:48:36.838Z,27.00
2022-12-14T22:50:40.185Z,28.52
2022-12-14T22:52:44.090Z,27.27
2022-12-14T22:54:54.245Z,26.25
2022-12-14T22:57:01.251Z,28.38
2022-12-14T22:59:10.202Z,22.25
2022-12-14T23:01:19.455Z,30.90
2022-12-14T23:03:25.103Z,27.42
2022-12-14T23:05:28.505Z,26.77
2022-12-14T23:07:32.236Z,27.88
2022-12-14T23:09:53.113Z,26.13
2022-12-14T23:12:17.116Z,28.52
2022-12-14T23:14:42.924Z,25.52
2022-12-14T23:17:03.654Z,27.38
2022-12-14T23:19:24.161Z,25.30
2022-12-14T23:21:44.926Z,25.33
2022-12-14T23:24:05.472Z,28.10
2022-12-14T23:26:25.987Z,32.85
2022-12-14T23:28:51.319Z,31.42
2022-12-14T23:31:15.395Z,33.55
2022-12-14T23:33:36.264Z,32.58
2022-12-14T23:35:57.041Z,33.40
2022-12-14T23:38:23.139Z,30.75
2022-12-14T23:40:43.870Z,34.13
2022-12-14T23:43:04.191Z,31.55
2022-12-14T23:45:26.011Z,34.45
2022-12-14T23:47:49.278Z,41.78
2022-12-14T23:50:10.447Z,33.83
2022-12-14T23:52:31.087Z,36.85
2022-12-14T23:54:51.769Z,33.28
2022-12-14T23:57:12.547Z,31.95
2022-12-14T23:59:33.275Z,31.55
